sensor_id;sensor_type;location;lat;lon;timestamp;pressure;altitude;pressure_sealevel;temperature;humidity
2397;BME280;1209;48.410;9.054;2023-04-10T00:01:40;96745.19;;;6.77;100.00
2397;BME280;1209;48.410;9.054;2023-04-10T00:04:05;96755.28;;;6.71;100.00
2397;BME280;1209;48.410;9.054;2023-04-10T00:06:31;96747.09;;;6.66;100.00
2397;BME280;1209;48.410;9.054;2023-04-10T00:08:57;96750.09;;;6.71;100.00
2397;BME280;1209;48.410;9.054;2023-04-10T00:11:23;96749.53;;;6.57;100.00
2397;BME280;1209;48.410;9.054;2023-04-10T00:13:49;96756.66;;;6.65;100.00
2397;BME280;1209;48.410;9.054;2023-04-10T00:16:14;96751.03;;;6.60;100.00
2397;BME280;1209;48.410;9.054;2023-04-10T00:18:40;96752.28;;;6.66;100.00
2397;BME280;1209;48.410;9.054;2023-04-10T00:21:05;96754.59;;;6.59;100.00
2397;BME280;1209;48.410;9.054;2023-04-10T00:23:31;96746.81;;;6.59;100.00
2397;BME280;1209;48.410;9.054;2023-04-10T00:25:58;96748.59;;;6.58;100.00
2397;BME280;1209;48.410;9.054;2023-04-10T00:28:23;96750.66;;;6.65;100.00
2397;BME280;1209;48.410;9.054;2023-04-10T00:30:49;96745.34;;;6.66;100.00
2397;BME280;1209;48.410;9.054;2023-04-10T00:33:14;96740.94;;;6.57;100.00
2397;BME280;1209;48.410;9.054;2023-04-10T00:35:39;96744.63;;;6.54;100.00
2397;BME280;1209;48.410;9.054;2023-04-10T00:38:05;96742.03;;;6.54;100.00
2397;BME280;1209;48.410;9.054;2023-04-10T00:40:30;96731.13;;;6.51;100.00
2397;BME280;1209;48.410;9.054;2023-04-10T00:42:55;96731.25;;;6.59;100.00
2397;BME280;1209;48.410;9.054;2023-04-10T00:45:21;96737.00;;;6.53;100.00
2397;BME280;1209;48.410;9.054;2023-04-10T00:47:46;96725.94;;;6.51;100.00
2397;BME280;1209;48.410;9.054;2023-04-10T00:50:11;96729.06;;;6.45;100.00
2397;BME280;1209;48.410;9.054;2023-04-10T00:52:37;96726.06;;;6.40;100.00
2397;BME280;1209;48.410;9.054;2023-04-10T00:55:03;96721.84;;;6.48;100.00
2397;BME280;1209;48.410;9.054;2023-04-10T00:57:28;96717.59;;;6.47;100.00
2397;BME280;1209;48.410;9.054;2023-04-10T00:59:54;96710.91;;;6.45;100.00
2397;BME280;1209;48.410;9.054;2023-04-10T01:02:19;96720.47;;;6.44;100.00
2397;BME280;1209;48.410;9.054;2023-04-10T01:04:45;96712.16;;;6.41;100.00
2397;BME280;1209;48.410;9.054;2023-04-10T01:10:04;96708.19;;;6.37;100.00
2397;BME280;1209;48.410;9.054;2023-04-10T01:14:11;96711.59;;;6.37;100.00
2397;BME280;1209;48.410;9.054;2023-04-10T01:16:10;96715.44;;;6.33;100.00
2397;BME280;1209;48.410;9.054;2023-04-10T01:21:17;96716.94;;;6.36;100.00
2397;BME280;1209;48.410;9.054;2023-04-10T01:26:35;96720.75;;;6.31;100.00
2397;BME280;1209;48.410;9.054;2023-04-10T01:29:06;96728.81;;;6.28;100.00
2397;BME280;1209;48.410;9.054;2023-04-10T01:31:35;96736.03;;;6.35;100.00
2397;BME280;1209;48.410;9.054;2023-04-10T01:34:38;96732.38;;;6.27;100.00
2397;BME280;1209;48.410;9.054;2023-04-10T01:37:15;96728.13;;;6.26;100.00
2397;BME280;1209;48.410;9.054;2023-04-10T01:39:41;96741.34;;;6.14;100.00
2397;BME280;1209;48.410;9.054;2023-04-10T01:42:09;96727.19;;;6.27;100.00
2397;BME280;1209;48.410;9.054;2023-04-10T01:44:37;96734.81;;;6.39;100.00
2397;BME280;1209;48.410;9.054;2023-04-10T01:47:06;96722.38;;;6.42;100.00
2397;BME280;1209;48.410;9.054;2023-04-10T01:49:32;96726.22;;;6.48;100.00
2397;BME280;1209;48.410;9.054;2023-04-10T01:51:59;96729.19;;;6.53;100.00
2397;BME280;1209;48.410;9.054;2023-04-10T01:54:29;96726.47;;;6.45;100.00
2397;BME280;1209;48.410;9.054;2023-04-10T01:56:58;96717.63;;;6.28;100.00
2397;BME280;1209;48.410;9.054;2023-04-10T01:59:23;96719.53;;;6.16;100.00
2397;BME280;1209;48.410;9.054;2023-04-10T02:01:57;96718.16;;;6.22;100.00
2397;BME280;1209;48.410;9.054;2023-04-10T02:04:23;96706.28;;;6.19;100.00
2397;BME280;1209;48.410;9.054;2023-04-10T02:07:01;96706.72;;;6.24;100.00
2397;BME280;1209;48.410;9.054;2023-04-10T02:12:04;96706.16;;;6.21;100.00
2397;BME280;1209;48.410;9.054;2023-04-10T02:14:31;96711.31;;;6.02;100.00
2397;BME280;1209;48.410;9.054;2023-04-10T02:16:59;96698.31;;;5.82;100.00
2397;BME280;1209;48.410;9.054;2023-04-10T02:19:26;96700.91;;;5.82;100.00
2397;BME280;1209;48.410;9.054;2023-04-10T02:21:52;96706.69;;;6.05;100.00
2397;BME280;1209;48.410;9.054;2023-04-10T02:24:19;96715.41;;;6.14;100.00
2397;BME280;1209;48.410;9.054;2023-04-10T02:26:48;96712.00;;;6.13;100.00
2397;BME280;1209;48.410;9.054;2023-04-10T02:29:14;96711.19;;;6.03;100.00
2397;BME280;1209;48.410;9.054;2023-04-10T02:31:40;96694.97;;;6.20;100.00
2397;BME280;1209;48.410;9.054;2023-04-10T02:34:06;96704.09;;;6.15;100.00
2397;BME280;1209;48.410;9.054;2023-04-10T02:36:31;96699.44;;;5.99;100.00
2397;BME280;1209;48.410;9.054;2023-04-10T02:38:57;96691.00;;;6.16;100.00
2397;BME280;1209;48.410;9.054;2023-04-10T02:41:22;96700.97;;;6.21;99.83
2397;BME280;1209;48.410;9.054;2023-04-10T02:43:48;96706.03;;;6.22;100.00
2397;BME280;1209;48.410;9.054;2023-04-10T02:46:13;96704.38;;;6.21;100.00
2397;BME280;1209;48.410;9.054;2023-04-10T02:48:39;96703.84;;;6.18;99.75
2397;BME280;1209;48.410;9.054;2023-04-10T02:51:04;96716.41;;;6.22;99.49
2397;BME280;1209;48.410;9.054;2023-04-10T02:53:32;96708.88;;;6.10;100.00
2397;BME280;1209;48.410;9.054;2023-04-10T02:55:57;96720.03;;;5.91;100.00
2397;BME280;1209;48.410;9.054;2023-04-10T02:58:22;96720.13;;;5.80;100.00
2397;BME280;1209;48.410;9.054;2023-04-10T03:00:48;96726.34;;;5.67;100.00
2397;BME280;1209;48.410;9.054;2023-04-10T03:03:15;96732.53;;;5.76;100.00
2397;BME280;1209;48.410;9.054;2023-04-10T03:05:40;96737.25;;;5.61;100.00
2397;BME280;1209;48.410;9.054;2023-04-10T03:08:05;96739.66;;;5.44;100.00
2397;BME280;1209;48.410;9.054;2023-04-10T03:10:30;96742.97;;;5.55;100.00
2397;BME280;1209;48.410;9.054;2023-04-10T03:12:56;96740.59;;;5.43;100.00
2397;BME280;1209;48.410;9.054;2023-04-10T03:15:21;96751.25;;;5.19;100.00
2397;BME280;1209;48.410;9.054;2023-04-10T03:17:46;96748.06;;;5.05;100.00
2397;BME280;1209;48.410;9.054;2023-04-10T03:20:12;96743.81;;;5.04;100.00
2397;BME280;1209;48.410;9.054;2023-04-10T03:22:37;96731.59;;;4.65;100.00
2397;BME280;1209;48.410;9.054;2023-04-10T03:25:04;96733.44;;;4.53;100.00
2397;BME280;1209;48.410;9.054;2023-04-10T03:27:29;96731.72;;;4.63;100.00
2397;BME280;1209;48.410;9.054;2023-04-10T03:29:56;96726.03;;;4.69;100.00
2397;BME280;1209;48.410;9.054;2023-04-10T03:32:21;96735.84;;;4.87;100.00
2397;BME280;1209;48.410;9.054;2023-04-10T03:34:46;96723.72;;;4.87;100.00
2397;BME280;1209;48.410;9.054;2023-04-10T03:37:12;96721.13;;;4.87;100.00
2397;BME280;1209;48.410;9.054;2023-04-10T03:39:37;96711.47;;;4.89;100.00
2397;BME280;1209;48.410;9.054;2023-04-10T03:42:02;96716.66;;;4.89;100.00
2397;BME280;1209;48.410;9.054;2023-04-10T03:44:27;96708.19;;;4.87;100.00
2397;BME280;1209;48.410;9.054;2023-04-10T03:46:53;96706.38;;;4.78;100.00
2397;BME280;1209;48.410;9.054;2023-04-10T03:49:18;96709.50;;;5.02;100.00
2397;BME280;1209;48.410;9.054;2023-04-10T03:51:43;96698.84;;;4.96;100.00
2397;BME280;1209;48.410;9.054;2023-04-10T03:54:08;96700.88;;;4.92;100.00
2397;BME280;1209;48.410;9.054;2023-04-10T03:56:34;96702.19;;;4.66;100.00
2397;BME280;1209;48.410;9.054;2023-04-10T03:59:00;96694.69;;;4.63;100.00
2397;BME280;1209;48.410;9.054;2023-04-10T04:01:25;96692.75;;;4.55;100.00
2397;BME280;1209;48.410;9.054;2023-04-10T04:03:50;96696.66;;;4.70;100.00
2397;BME280;1209;48.410;9.054;2023-04-10T04:06:15;96690.03;;;4.78;100.00
2397;BME280;1209;48.410;9.054;2023-04-10T04:08:41;96688.06;;;4.70;100.00
2397;BME280;1209;48.410;9.054;2023-04-10T04:11:06;96684.03;;;4.56;100.00
2397;BME280;1209;48.410;9.054;2023-04-10T04:13:31;96683.63;;;4.30;100.00
2397;BME280;1209;48.410;9.054;2023-04-10T04:15:57;96678.91;;;4.03;100.00
2397;BME280;1209;48.410;9.054;2023-04-10T04:18:22;96679.59;;;3.73;100.00
2397;BME280;1209;48.410;9.054;2023-04-10T04:20:47;96680.53;;;3.84;100.00
2397;BME280;1209;48.410;9.054;2023-04-10T04:23:12;96674.91;;;3.78;100.00
2397;BME280;1209;48.410;9.054;2023-04-10T04:25:38;96676.53;;;3.79;100.00
2397;BME280;1209;48.410;9.054;2023-04-10T04:28:03;96679.81;;;3.82;100.00
2397;BME280;1209;48.410;9.054;2023-04-10T04:30:28;96677.25;;;3.82;100.00
2397;BME280;1209;48.410;9.054;2023-04-10T04:32:54;96670.22;;;3.61;100.00
2397;BME280;1209;48.410;9.054;2023-04-10T04:35:19;96670.47;;;3.58;100.00
2397;BME280;1209;48.410;9.054;2023-04-10T04:37:44;96668.66;;;3.38;100.00
2397;BME280;1209;48.410;9.054;2023-04-10T04:40:10;96665.09;;;3.50;100.00
2397;BME280;1209;48.410;9.054;2023-04-10T04:42:35;96681.56;;;3.27;100.00
2397;BME280;1209;48.410;9.054;2023-04-10T04:45:01;96672.06;;;3.16;100.00
2397;BME280;1209;48.410;9.054;2023-04-10T04:47:26;96669.72;;;3.24;100.00
2397;BME280;1209;48.410;9.054;2023-04-10T04:49:52;96666.31;;;3.24;100.00
2397;BME280;1209;48.410;9.054;2023-04-10T04:52:17;96664.78;;;3.21;100.00
2397;BME280;1209;48.410;9.054;2023-04-10T04:54:42;96675.22;;;3.20;100.00
2397;BME280;1209;48.410;9.054;2023-04-10T04:57:07;96662.69;;;3.37;100.00
2397;BME280;1209;48.410;9.054;2023-04-10T04:59:33;96666.66;;;3.30;100.00
2397;BME280;1209;48.410;9.054;2023-04-10T05:01:58;96661.41;;;3.09;100.00
2397;BME280;1209;48.410;9.054;2023-04-10T05:04:24;96662.13;;;3.00;100.00
2397;BME280;1209;48.410;9.054;2023-04-10T05:06:49;96660.00;;;3.05;100.00
2397;BME280;1209;48.410;9.054;2023-04-10T05:09:14;96654.59;;;3.08;100.00
2397;BME280;1209;48.410;9.054;2023-04-10T05:11:40;96664.91;;;3.08;100.00
2397;BME280;1209;48.410;9.054;2023-04-10T05:14:05;96664.56;;;3.02;100.00
2397;BME280;1209;48.410;9.054;2023-04-10T05:16:30;96664.81;;;3.10;100.00
2397;BME280;1209;48.410;9.054;2023-04-10T05:18:56;96667.25;;;3.23;100.00
2397;BME280;1209;48.410;9.054;2023-04-10T05:21:21;96658.91;;;3.30;100.00
2397;BME280;1209;48.410;9.054;2023-04-10T05:23:46;96672.41;;;3.34;100.00
2397;BME280;1209;48.410;9.054;2023-04-10T05:26:11;96674.66;;;3.16;100.00
2397;BME280;1209;48.410;9.054;2023-04-10T05:28:37;96685.78;;;3.16;100.00
2397;BME280;1209;48.410;9.054;2023-04-10T05:31:02;96682.75;;;3.34;100.00
2397;BME280;1209;48.410;9.054;2023-04-10T05:33:27;96683.69;;;3.33;100.00
2397;BME280;1209;48.410;9.054;2023-04-10T05:35:53;96694.94;;;3.43;100.00
2397;BME280;1209;48.410;9.054;2023-04-10T05:38:18;96685.91;;;3.37;100.00
2397;BME280;1209;48.410;9.054;2023-04-10T05:40:44;96685.06;;;3.48;100.00
2397;BME280;1209;48.410;9.054;2023-04-10T05:43:09;96694.28;;;3.62;100.00
2397;BME280;1209;48.410;9.054;2023-04-10T05:45:35;96691.31;;;3.77;100.00
2397;BME280;1209;48.410;9.054;2023-04-10T05:48:00;96695.56;;;3.67;100.00
2397;BME280;1209;48.410;9.054;2023-04-10T05:50:25;96700.72;;;3.67;100.00
2397;BME280;1209;48.410;9.054;2023-04-10T05:52:50;96705.16;;;3.88;100.00
2397;BME280;1209;48.410;9.054;2023-04-10T05:55:16;96703.47;;;3.98;100.00
2397;BME280;1209;48.410;9.054;2023-04-10T05:57:41;96706.72;;;4.11;100.00
2397;BME280;1209;48.410;9.054;2023-04-10T06:00:07;96698.09;;;4.22;100.00
2397;BME280;1209;48.410;9.054;2023-04-10T06:02:33;96705.00;;;4.32;100.00
2397;BME280;1209;48.410;9.054;2023-04-10T06:04:58;96702.16;;;4.35;100.00
2397;BME280;1209;48.410;9.054;2023-04-10T06:07:23;96699.06;;;4.41;100.00
2397;BME280;1209;48.410;9.054;2023-04-10T06:09:49;96698.19;;;4.31;100.00
2397;BME280;1209;48.410;9.054;2023-04-10T06:12:14;96697.44;;;4.40;100.00
2397;BME280;1209;48.410;9.054;2023-04-10T06:14:40;96702.66;;;4.50;100.00
2397;BME280;1209;48.410;9.054;2023-04-10T06:17:05;96692.38;;;4.60;100.00
2397;BME280;1209;48.410;9.054;2023-04-10T06:19:31;96690.31;;;4.74;100.00
2397;BME280;1209;48.410;9.054;2023-04-10T06:21:56;96685.69;;;4.78;100.00
2397;BME280;1209;48.410;9.054;2023-04-10T06:24:21;96685.09;;;4.95;100.00
2397;BME280;1209;48.410;9.054;2023-04-10T06:26:47;96688.88;;;4.91;100.00
2397;BME280;1209;48.410;9.054;2023-04-10T06:29:12;96681.53;;;4.96;100.00
2397;BME280;1209;48.410;9.054;2023-04-10T06:31:37;96686.50;;;5.09;100.00
2397;BME280;1209;48.410;9.054;2023-04-10T06:34:03;96695.13;;;5.19;100.00
2397;BME280;1209;48.410;9.054;2023-04-10T06:36:28;96684.94;;;5.27;100.00
2397;BME280;1209;48.410;9.054;2023-04-10T06:38:53;96687.88;;;5.53;100.00
2397;BME280;1209;48.410;9.054;2023-04-10T06:41:18;96680.38;;;5.60;100.00
2397;BME280;1209;48.410;9.054;2023-04-10T06:43:46;96672.81;;;5.87;100.00
2397;BME280;1209;48.410;9.054;2023-04-10T06:46:12;96666.16;;;6.04;100.00
2397;BME280;1209;48.410;9.054;2023-04-10T06:48:39;96665.50;;;6.21;100.00
2397;BME280;1209;48.410;9.054;2023-04-10T06:51:04;96661.22;;;6.40;100.00
2397;BME280;1209;48.410;9.054;2023-04-10T06:53:30;96668.00;;;6.60;100.00
2397;BME280;1209;48.410;9.054;2023-04-10T06:55:55;96657.47;;;6.81;100.00
2397;BME280;1209;48.410;9.054;2023-04-10T06:58:21;96667.47;;;7.13;100.00
2397;BME280;1209;48.410;9.054;2023-04-10T07:00:46;96659.00;;;7.38;100.00
2397;BME280;1209;48.410;9.054;2023-04-10T07:03:12;96656.69;;;7.63;100.00
2397;BME280;1209;48.410;9.054;2023-04-10T07:05:37;96649.34;;;7.94;93.33
2397;BME280;1209;48.410;9.054;2023-04-10T07:08:02;96651.38;;;8.35;93.98
2397;BME280;1209;48.410;9.054;2023-04-10T07:10:28;96651.25;;;8.63;91.15
2397;BME280;1209;48.410;9.054;2023-04-10T07:12:53;96654.78;;;8.79;89.92
2397;BME280;1209;48.410;9.054;2023-04-10T07:15:18;96653.66;;;9.08;93.25
2397;BME280;1209;48.410;9.054;2023-04-10T07:17:43;96652.94;;;9.32;83.04
2397;BME280;1209;48.410;9.054;2023-04-10T07:20:09;96648.34;;;9.68;79.86
2397;BME280;1209;48.410;9.054;2023-04-10T07:22:35;96650.38;;;9.98;76.02
2397;BME280;1209;48.410;9.054;2023-04-10T07:25:00;96647.28;;;10.19;74.13
2397;BME280;1209;48.410;9.054;2023-04-10T07:27:26;96646.97;;;10.63;72.29
2397;BME280;1209;48.410;9.054;2023-04-10T07:29:53;96645.31;;;10.78;69.22
2397;BME280;1209;48.410;9.054;2023-04-10T07:32:19;96653.09;;;11.11;65.28
2397;BME280;1209;48.410;9.054;2023-04-10T07:34:44;96666.44;;;11.24;61.53
2397;BME280;1209;48.410;9.054;2023-04-10T07:37:10;96643.00;;;11.47;62.08
2397;BME280;1209;48.410;9.054;2023-04-10T07:39:35;96650.84;;;11.47;57.72
2397;BME280;1209;48.410;9.054;2023-04-10T07:42:00;96649.94;;;11.62;60.35
2397;BME280;1209;48.410;9.054;2023-04-10T07:44:26;96652.41;;;11.95;59.82
2397;BME280;1209;48.410;9.054;2023-04-10T07:46:52;96656.09;;;12.09;58.33
2397;BME280;1209;48.410;9.054;2023-04-10T07:49:18;96657.75;;;12.24;57.44
2397;BME280;1209;48.410;9.054;2023-04-10T07:51:43;96643.69;;;12.25;56.41
2397;BME280;1209;48.410;9.054;2023-04-10T07:54:08;96636.25;;;12.37;55.52
2397;BME280;1209;48.410;9.054;2023-04-10T07:56:33;96644.84;;;12.46;57.38
2397;BME280;1209;48.410;9.054;2023-04-10T07:58:59;96642.72;;;12.64;54.76
2397;BME280;1209;48.410;9.054;2023-04-10T08:01:28;96654.38;;;12.76;56.33
2397;BME280;1209;48.410;9.054;2023-04-10T08:03:53;96662.13;;;13.07;55.14
2397;BME280;1209;48.410;9.054;2023-04-10T08:06:20;96650.91;;;12.99;52.84
2397;BME280;1209;48.410;9.054;2023-04-10T08:08:45;96653.00;;;13.03;53.35
2397;BME280;1209;48.410;9.054;2023-04-10T08:11:25;96647.72;;;13.26;52.25
2397;BME280;1209;48.410;9.054;2023-04-10T08:13:55;96658.59;;;13.59;53.13
2397;BME280;1209;48.410;9.054;2023-04-10T08:16:26;96664.84;;;13.73;51.31
2397;BME280;1209;48.410;9.054;2023-04-10T08:18:52;96659.75;;;13.71;50.00
2397;BME280;1209;48.410;9.054;2023-04-10T08:21:18;96649.56;;;13.98;51.51
2397;BME280;1209;48.410;9.054;2023-04-10T08:23:44;96651.19;;;13.63;50.87
2397;BME280;1209;48.410;9.054;2023-04-10T08:26:11;96652.25;;;13.83;51.16
2397;BME280;1209;48.410;9.054;2023-04-10T08:28:36;96638.63;;;13.94;50.68
2397;BME280;1209;48.410;9.054;2023-04-10T08:31:02;96649.50;;;13.91;50.92
2397;BME280;1209;48.410;9.054;2023-04-10T08:33:27;96647.44;;;13.86;51.22
2397;BME280;1209;48.410;9.054;2023-04-10T08:35:52;96644.59;;;14.24;50.44
2397;BME280;1209;48.410;9.054;2023-04-10T08:38:18;96647.56;;;14.64;51.54
2397;BME280;1209;48.410;9.054;2023-04-10T08:40:45;96643.63;;;14.74;49.19
2397;BME280;1209;48.410;9.054;2023-04-10T08:43:11;96661.09;;;14.82;48.92
2397;BME280;1209;48.410;9.054;2023-04-10T08:45:36;96638.53;;;15.01;48.31
2397;BME280;1209;48.410;9.054;2023-04-10T08:48:04;96626.38;;;14.93;48.19
2397;BME280;1209;48.410;9.054;2023-04-10T08:50:40;96646.97;;;15.18;47.30
2397;BME280;1209;48.410;9.054;2023-04-10T08:53:11;96643.22;;;15.05;46.40
2397;BME280;1209;48.410;9.054;2023-04-10T08:55:38;96643.06;;;15.48;48.05
2397;BME280;1209;48.410;9.054;2023-04-10T08:58:04;96644.22;;;15.73;47.11
2397;BME280;1209;48.410;9.054;2023-04-10T09:00:33;96643.28;;;16.01;45.26
2397;BME280;1209;48.410;9.054;2023-04-10T09:06:05;96646.31;;;15.50;45.79
2397;BME280;1209;48.410;9.054;2023-04-10T09:08:31;96652.78;;;15.89;45.58
2397;BME280;1209;48.410;9.054;2023-04-10T09:10:58;96640.91;;;15.58;44.75
2397;BME280;1209;48.410;9.054;2023-04-10T09:13:40;96641.88;;;15.57;44.24
2397;BME280;1209;48.410;9.054;2023-04-10T09:16:07;96647.84;;;15.66;44.46
2397;BME280;1209;48.410;9.054;2023-04-10T09:18:40;96647.00;;;16.53;44.50
2397;BME280;1209;48.410;9.054;2023-04-10T09:21:07;96652.09;;;16.54;43.68
2397;BME280;1209;48.410;9.054;2023-04-10T09:23:32;96642.34;;;16.42;43.37
2397;BME280;1209;48.410;9.054;2023-04-10T09:25:58;96639.09;;;16.33;43.68
2397;BME280;1209;48.410;9.054;2023-04-10T09:28:23;96637.91;;;17.08;43.37
2397;BME280;1209;48.410;9.054;2023-04-10T09:30:48;96644.59;;;17.11;42.01
2397;BME280;1209;48.410;9.054;2023-04-10T09:35:47;96641.38;;;16.69;43.75
2397;BME280;1209;48.410;9.054;2023-04-10T09:38:13;96634.63;;;17.19;44.44
2397;BME280;1209;48.410;9.054;2023-04-10T09:40:39;96634.44;;;17.14;40.96
2397;BME280;1209;48.410;9.054;2023-04-10T09:43:19;96626.94;;;17.11;41.69
2397;BME280;1209;48.410;9.054;2023-04-10T09:45:50;96614.16;;;17.08;43.12
2397;BME280;1209;48.410;9.054;2023-04-10T09:48:17;96612.16;;;17.68;43.32
2397;BME280;1209;48.410;9.054;2023-04-10T09:50:43;96614.56;;;17.76;40.62
2397;BME280;1209;48.410;9.054;2023-04-10T09:53:14;96603.38;;;17.74;41.69
2397;BME280;1209;48.410;9.054;2023-04-10T09:55:41;96590.44;;;18.29;39.29
2397;BME280;1209;48.410;9.054;2023-04-10T09:58:07;96588.66;;;18.23;39.76
2397;BME280;1209;48.410;9.054;2023-04-10T10:00:41;96589.44;;;18.55;41.34
2397;BME280;1209;48.410;9.054;2023-04-10T10:03:12;96589.00;;;18.58;38.71
2397;BME280;1209;48.410;9.054;2023-04-10T10:05:39;96574.75;;;18.84;39.07
2397;BME280;1209;48.410;9.054;2023-04-10T10:08:06;96569.69;;;18.82;40.57
2397;BME280;1209;48.410;9.054;2023-04-10T10:10:32;96570.72;;;18.81;37.96
2397;BME280;1209;48.410;9.054;2023-04-10T10:12:59;96569.84;;;19.24;38.82
2397;BME280;1209;48.410;9.054;2023-04-10T10:15:44;96559.38;;;18.49;37.27
2397;BME280;1209;48.410;9.054;2023-04-10T10:21:01;96567.03;;;18.82;36.83
2397;BME280;1209;48.410;9.054;2023-04-10T10:23:27;96568.78;;;18.70;35.79
2397;BME280;1209;48.410;9.054;2023-04-10T10:25:53;96565.16;;;18.65;35.17
2397;BME280;1209;48.410;9.054;2023-04-10T10:28:19;96561.84;;;19.12;33.99
2397;BME280;1209;48.410;9.054;2023-04-10T10:30:46;96551.09;;;19.26;34.32
2397;BME280;1209;48.410;9.054;2023-04-10T10:33:13;96552.06;;;18.95;34.28
2397;BME280;1209;48.410;9.054;2023-04-10T10:35:39;96543.22;;;19.19;34.38
2397;BME280;1209;48.410;9.054;2023-04-10T10:38:05;96541.16;;;18.84;32.33
2397;BME280;1209;48.410;9.054;2023-04-10T10:43:13;96535.81;;;19.76;33.23
2397;BME280;1209;48.410;9.054;2023-04-10T10:45:55;96531.16;;;20.01;31.83
2397;BME280;1209;48.410;9.054;2023-04-10T10:48:23;96533.06;;;19.83;34.03
2397;BME280;1209;48.410;9.054;2023-04-10T10:50:53;96528.66;;;20.18;32.33
2397;BME280;1209;48.410;9.054;2023-04-10T10:53:49;96526.69;;;19.72;30.70
2397;BME280;1209;48.410;9.054;2023-04-10T10:58:47;96524.63;;;19.26;31.97
2397;BME280;1209;48.410;9.054;2023-04-10T11:01:13;96524.31;;;19.15;31.99
2397;BME280;1209;48.410;9.054;2023-04-10T11:03:38;96523.28;;;19.53;32.20
2397;BME280;1209;48.410;9.054;2023-04-10T11:06:06;96520.16;;;19.38;31.79
2397;BME280;1209;48.410;9.054;2023-04-10T11:11:01;96508.69;;;18.96;31.84
2397;BME280;1209;48.410;9.054;2023-04-10T11:13:28;96517.03;;;19.77;31.10
2397;BME280;1209;48.410;9.054;2023-04-10T11:15:55;96518.63;;;20.32;31.37
2397;BME280;1209;48.410;9.054;2023-04-10T11:21:13;96515.09;;;20.96;31.59
2397;BME280;1209;48.410;9.054;2023-04-10T11:31:36;96509.88;;;20.20;33.22
2397;BME280;1209;48.410;9.054;2023-04-10T11:34:04;96498.03;;;20.34;33.49
2397;BME280;1209;48.410;9.054;2023-04-10T11:36:31;96493.75;;;20.68;32.92
2397;BME280;1209;48.410;9.054;2023-04-10T11:41:33;96485.00;;;21.19;32.15
2397;BME280;1209;48.410;9.054;2023-04-10T11:44:00;96479.09;;;20.89;32.52
2397;BME280;1209;48.410;9.054;2023-04-10T11:46:27;96484.78;;;20.57;33.02
2397;BME280;1209;48.410;9.054;2023-04-10T11:49:21;96486.53;;;21.55;32.17
2397;BME280;1209;48.410;9.054;2023-04-10T11:51:49;96480.91;;;21.68;32.45
2397;BME280;1209;48.410;9.054;2023-04-10T11:54:16;96487.34;;;21.73;30.30
2397;BME280;1209;48.410;9.054;2023-04-10T11:56:43;96488.88;;;22.14;30.48
2397;BME280;1209;48.410;9.054;2023-04-10T11:59:09;96495.34;;;22.35;30.72
2397;BME280;1209;48.410;9.054;2023-04-10T12:01:37;96492.59;;;22.46;28.37
2397;BME280;1209;48.410;9.054;2023-04-10T12:04:03;96471.63;;;22.16;28.56
2397;BME280;1209;48.410;9.054;2023-04-10T12:06:37;96468.69;;;21.39;29.55
2397;BME280;1209;48.410;9.054;2023-04-10T12:09:11;96481.72;;;21.00;29.71
2397;BME280;1209;48.410;9.054;2023-04-10T12:11:37;96466.88;;;21.16;28.90
2397;BME280;1209;48.410;9.054;2023-04-10T12:14:02;96478.63;;;20.92;30.51
2397;BME280;1209;48.410;9.054;2023-04-10T12:16:28;96471.38;;;21.16;30.94
2397;BME280;1209;48.410;9.054;2023-04-10T12:18:53;96457.25;;;20.98;28.82
2397;BME280;1209;48.410;9.054;2023-04-10T12:21:19;96466.75;;;21.34;29.29
2397;BME280;1209;48.410;9.054;2023-04-10T12:23:44;96457.06;;;21.17;28.87
2397;BME280;1209;48.410;9.054;2023-04-10T12:26:17;96446.41;;;21.28;28.79
2397;BME280;1209;48.410;9.054;2023-04-10T12:28:56;96449.28;;;21.39;29.00
2397;BME280;1209;48.410;9.054;2023-04-10T12:31:33;96452.31;;;21.30;29.61
2397;BME280;1209;48.410;9.054;2023-04-10T12:34:00;96448.38;;;21.21;30.85
2397;BME280;1209;48.410;9.054;2023-04-10T12:36:27;96440.94;;;21.63;29.18
2397;BME280;1209;48.410;9.054;2023-04-10T12:38:54;96451.75;;;21.74;29.33
2397;BME280;1209;48.410;9.054;2023-04-10T12:41:21;96443.59;;;21.63;28.05
2397;BME280;1209;48.410;9.054;2023-04-10T12:43:49;96445.53;;;20.59;29.46
2397;BME280;1209;48.410;9.054;2023-04-10T12:46:28;96442.28;;;19.99;31.45
2397;BME280;1209;48.410;9.054;2023-04-10T12:49:07;96438.81;;;20.33;30.76
2397;BME280;1209;48.410;9.054;2023-04-10T12:51:51;96429.94;;;20.63;30.08
2397;BME280;1209;48.410;9.054;2023-04-10T12:54:33;96430.50;;;20.88;29.83
2397;BME280;1209;48.410;9.054;2023-04-10T12:57:01;96426.59;;;21.08;31.60
2397;BME280;1209;48.410;9.054;2023-04-10T12:59:29;96420.28;;;20.97;31.10
2397;BME280;1209;48.410;9.054;2023-04-10T13:01:54;96417.78;;;20.79;30.55
2397;BME280;1209;48.410;9.054;2023-04-10T13:04:20;96408.41;;;20.48;30.16
2397;BME280;1209;48.410;9.054;2023-04-10T13:06:47;96410.00;;;20.37;30.51
2397;BME280;1209;48.410;9.054;2023-04-10T13:09:13;96406.75;;;20.23;31.05
2397;BME280;1209;48.410;9.054;2023-04-10T13:11:39;96410.34;;;20.52;30.54
2397;BME280;1209;48.410;9.054;2023-04-10T13:14:05;96404.69;;;20.25;31.63
2397;BME280;1209;48.410;9.054;2023-04-10T13:16:30;96402.06;;;20.02;31.11
2397;BME280;1209;48.410;9.054;2023-04-10T13:18:56;96394.63;;;19.57;31.86
2397;BME280;1209;48.410;9.054;2023-04-10T13:21:21;96403.41;;;19.81;33.03
2397;BME280;1209;48.410;9.054;2023-04-10T13:23:54;96388.69;;;19.97;32.10
2397;BME280;1209;48.410;9.054;2023-04-10T13:26:20;96389.06;;;19.47;33.45
2397;BME280;1209;48.410;9.054;2023-04-10T13:28:46;96397.56;;;19.49;34.10
2397;BME280;1209;48.410;9.054;2023-04-10T13:31:11;96394.78;;;20.09;34.11
2397;BME280;1209;48.410;9.054;2023-04-10T13:33:36;96381.63;;;19.79;33.31
2397;BME280;1209;48.410;9.054;2023-04-10T13:36:02;96386.13;;;19.78;32.73
2397;BME280;1209;48.410;9.054;2023-04-10T13:38:28;96384.88;;;19.93;33.33
2397;BME280;1209;48.410;9.054;2023-04-10T13:40:53;96381.09;;;19.47;32.08
2397;BME280;1209;48.410;9.054;2023-04-10T13:43:18;96380.13;;;19.30;32.66
2397;BME280;1209;48.410;9.054;2023-04-10T13:45:44;96385.00;;;19.03;33.65
2397;BME280;1209;48.410;9.054;2023-04-10T13:48:09;96388.63;;;19.20;34.17
2397;BME280;1209;48.410;9.054;2023-04-10T13:50:34;96375.72;;;19.54;35.70
2397;BME280;1209;48.410;9.054;2023-04-10T13:53:00;96369.75;;;19.28;33.34
2397;BME280;1209;48.410;9.054;2023-04-10T13:55:25;96363.38;;;19.47;35.64
2397;BME280;1209;48.410;9.054;2023-04-10T13:57:52;96359.22;;;19.52;34.13
2397;BME280;1209;48.410;9.054;2023-04-10T14:00:17;96349.59;;;19.57;34.92
2397;BME280;1209;48.410;9.054;2023-04-10T14:02:43;96359.50;;;19.73;34.82